Terminal Aerodrome Forecast
Issued by NWS

Home | Current Version | Previous Version | Graphics & Text | Print | Product List | Glossary On
Versions: 1 2 3 4 5 6 7 8 9 10 11 12 13 14 15 16 17 18 19 20 21
000
FTUS43 KLSX 160100 AAA
TAFSUS
TAF AMD
KSUS 160133Z 1602/1624 36005KT P6SM SCT008 OVC012
     FM160300 35006KT 4SM BR BKN008
     FM160900 36005KT 1SM BR OVC004
     FM161400 36005KT 4SM BR OVC012
     FM161600 01005KT P6SM SCT025=

USA.gov is the U.S. government's official web portal to all federal, state and local government web resources and services.